Latest Weather Observations for Shepparton

IDV60801

Issued at 10:32 am EDT Monday 27 February 2017 (issued every 30 minutes, with the page automatically refreshed every 10 minutes)

About weather observations | Map of weather stations | Latest weather observations for VIC | Other Formats
Station Details ID: 081125 Name: SHEPPARTON AIRPORT Lat: -36.43 Lon: 145.39 Height: 113.9 m
Data from the previous 72 hours. | See also: Recent months at Shepparton
Date/Time
EDT
Temp
°C
App
Temp
°C
Dew
Point
°C
Rel
Hum
%
Delta-T
°C
Wind Press
QNH
hPa
Press
MSL
hPa
Rain since
9am
mm
Dir  Spd
km/h
Gust
km/h
Spd
kts
Gust
kts
27/10:30am 24.2 20.8 11.2 44 7.3 NNE 20 28 11 15 1023.8 1023.3 0.0
27/10:00am 23.7 20.7 10.7 44 7.2 NNE 17 28 9 15 1023.9 1023.4 0.0
27/09:30am 21.9 18.4 10.1 47 6.4 NE 19 26 10 14 1023.9 1023.4 0.0
27/09:00am 20.8 18.5 10.3 51 5.7 NE 13 19 7 10 1023.8 1023.3 0.0
27/08:30am 19.6 17.7 10.6 56 4.9 ENE 11 15 6 8 1023.8 1023.3 0.0
27/08:00am 17.4 16.6 11.0 66 3.5 ESE 6 6 3 3 1023.6 1023.1 0.0
27/07:30am 14.7 14.5 10.5 76 2.2 SSE 2 6 1 3 1023.3 1022.8 0.0
27/07:00am 14.7 14.3 9.7 72 2.6 ESE 2 6 1 3 1022.9 1022.4 0.0
27/06:30am 15.3 13.7 10.1 71 2.7 ESE 9 11 5 6 1022.5 1022.0 0.0
27/06:00am 16.3 14.9 9.7 65 3.5 E 7 9 4 5 1022.2 1021.7 0.0
27/05:30am 18.2 16.7 10.6 61 4.1 ENE 9 13 5 7 1021.8 1021.3 0.0
27/05:00am 18.4 17.3 10.8 61 4.1 ENE 7 15 4 8 1021.4 1020.9 0.0
27/04:30am 19.2 16.9 10.5 57 4.7 NE 13 17 7 9 1021.2 1020.7 0.0
27/04:00am 19.1 18.0 10.6 58 4.6 NE 7 11 4 6 1020.9 1020.4 0.0
27/03:30am 20.1 17.8 10.5 54 5.2 NE 13 19 7 10 1020.9 1020.4 0.0
27/03:00am 20.4 18.1 10.5 53 5.4 NE 13 17 7 9 1020.8 1020.3 0.0
27/02:30am 19.8 18.5 11.3 58 4.7 NE 9 17 5 9 1020.5 1020.0 0.0
27/02:00am 17.0 15.6 10.8 67 3.3 ENE 9 15 5 8 1020.4 1019.9 0.0
27/01:30am 16.4 15.6 10.9 70 3.0 ESE 6 9 3 5 1020.1 1019.6 0.0
27/01:00am 16.8 16.0 10.9 68 3.2 ESE 6 9 3 5 1019.9 1019.4 0.0
27/12:30am 17.5 16.8 11.3 67 3.4 ESE 6 7 3 4 1019.7 1019.2 0.0
27/12:00am 18.6 19.1 11.7 64 3.8 CALM 0 0 0 0 1019.5 1019.0 0.0
 
Date/Time
EDT
Temp
°C
App
Temp
°C
Dew
Point
°C
Rel
Hum
%
Delta-T
°C
Wind Press
QNH
hPa
Press
MSL
hPa
Rain since
9am
mm
Dir  Spd
km/h
Gust
km/h
Spd
kts
Gust
kts
26/11:30pm 19.4 19.8 11.4 60 4.4 CALM 0 0 0 0 1019.4 1018.9 0.0
26/11:00pm 20.3 20.9 11.8 58 4.7 CALM 0 0 0 0 1019.4 1018.9 0.0
26/10:30pm 20.5 19.8 11.4 56 5.0 ESE 6 6 3 3 1019.4 1018.9 0.0
26/10:00pm 22.1 21.6 10.6 48 6.3 ESE 4 6 2 3 1019.3 1018.8 0.0
26/09:30pm 22.9 21.7 9.7 43 7.2 ESE 6 7 3 4 1018.9 1018.5 0.0
26/09:00pm 24.0 22.4 8.8 38 8.2 ESE 7 9 4 5 1018.6 1018.2 0.0
26/08:30pm 25.9 24.4 9.3 35 9.1 ESE 7 7 4 4 1018.3 1017.9 0.0
26/08:00pm 27.9 26.5 8.7 30 10.5 E 6 9 3 5 1018.0 1017.6 0.0
26/07:30pm 29.2 26.6 7.7 26 11.7 ESE 11 13 6 7 1017.7 1017.3 0.0
26/07:00pm 30.0 27.6 7.2 24 12.3 ESE 9 11 5 6 1017.5 1017.1 0.0
26/06:30pm 31.2 30.4 8.2 24 12.8 NW 2 6 1 3 1017.4 1016.9 0.0
26/06:00pm 30.4 29.0 8.7 26 12.1 ENE 6 11 3 6 1017.4 1016.9 0.0
26/05:30pm 30.6 28.1 8.3 25 12.4 N 11 17 6 9 1017.3 1016.8 0.0
26/05:00pm 30.4 27.6 8.7 26 12.1 ENE 13 19 7 10 1017.4 1016.9 0.0
26/04:30pm 30.3 28.4 9.2 27 11.8 NW 9 15 5 8 1017.5 1017.1 0.0
26/04:00pm 29.9 27.3 9.4 28 11.5 NNE 13 22 7 12 1017.9 1017.5 0.0
26/03:30pm 29.7 28.5 10.3 30 11.1 E 7 13 4 7 1018.3 1017.9 0.0
26/03:00pm 29.0 27.4 10.2 31 10.6 NE 9 15 5 8 1018.6 1018.2 0.0
26/02:30pm 28.3 25.1 10.0 32 10.3 NE 17 24 9 13 1019.1 1018.7 0.0
26/02:00pm 28.9 26.9 11.5 34 10.1 E 13 19 7 10 1019.4 1018.9 0.0
26/01:30pm 27.6 24.6 10.8 35 9.6 N 17 26 9 14 1019.7 1019.2 0.0
26/01:00pm 27.3 24.0 10.9 36 9.3 NNE 19 28 10 15 1020.1 1019.6 0.0
26/12:30pm 27.8 24.9 10.9 35 9.6 NNE 17 30 9 16 1020.3 1019.8 0.0
26/12:00pm 26.6 23.0 10.7 37 9.0 NNE 20 30 11 16 1020.7 1020.2 0.0
26/11:30am 26.2 22.7 10.8 38 8.7 NNE 20 32 11 17 1020.8 1020.3 0.0
26/11:00am 24.9 22.0 11.1 42 7.8 NNE 17 26 9 14 1021.0 1020.5 0.0
26/10:30am 24.2 21.4 11.2 44 7.3 ENE 17 26 9 14 1021.2 1020.7 0.0
26/10:00am 22.9 20.9 11.6 49 6.4 NE 13 20 7 11 1021.2 1020.7 0.0
26/09:30am 21.0 19.5 11.9 56 5.1 ENE 11 17 6 9 1021.2 1020.7 0.0
26/09:00am 19.0 17.9 11.8 63 4.0 E 9 13 5 7 1021.1 1020.6 0.0
26/08:30am 16.9 17.2 12.2 74 2.6 S 2 7 1 4 1021.1 1020.6 0.0
26/08:00am 14.3 14.8 11.6 84 1.4 CALM 0 6 0 3 1020.9 1020.4 0.0
26/07:30am 12.9 12.9 11.0 88 1.0 S 2 7 1 4 1020.2 1019.7 0.0
26/07:00am 11.8 10.8 10.2 90 0.8 S 6 7 3 4 1019.9 1019.4 0.0
26/06:30am 12.3 12.5 10.4 88 1.0 CALM 0 0 0 0 1019.3 1018.8 0.0
26/06:00am 12.4 12.5 10.0 85 1.2 CALM 0 0 0 0 1018.8 1018.4 0.0
26/05:30am 13.0 13.2 10.7 86 1.2 CALM 0 6 0 3 1018.7 1018.3 0.0
26/05:00am 13.2 12.1 10.7 85 1.3 S 7 9 4 5 1018.8 1018.4 0.0
26/04:30am 13.6 11.8 11.0 84 1.4 S 11 15 6 8 1018.7 1018.3 0.0
26/04:00am 13.1 10.8 10.5 84 1.4 S 13 15 7 8 1018.3 1017.9 0.0
26/03:30am 13.7 12.8 10.5 81 1.7 ESE 6 9 3 5 1018.1 1017.7 0.0
26/03:00am 14.1 13.0 10.7 80 1.8 SE 7 9 4 5 1018.1 1017.7 0.0
26/02:30am 14.3 13.2 10.5 78 2.0 SE 7 7 4 4 1018.3 1017.9 0.0
26/02:00am 14.9 12.7 10.9 77 2.1 S 13 17 7 9 1018.6 1018.2 0.0
26/01:30am 15.1 12.9 10.7 75 2.3 S 13 17 7 9 1018.5 1018.1 0.0
26/01:00am 15.4 12.8 10.6 73 2.5 S 15 19 8 10 1018.5 1018.1 0.0
26/12:30am 16.0 13.0 10.5 70 2.9 S 17 22 9 12 1018.6 1018.2 0.0
26/12:00am 15.9 13.2 10.2 69 3.0 S 15 20 8 11 1018.3 1017.9 0.0
 
Date/Time
EDT
Temp
°C
App
Temp
°C
Dew
Point
°C
Rel
Hum
%
Delta-T
°C
Wind Press
QNH
hPa
Press
MSL
hPa
Rain since
9am
mm
Dir  Spd
km/h
Gust
km/h
Spd
kts
Gust
kts
25/11:30pm 16.2 12.7 10.1 67 3.2 S 19 28 10 15 1018.5 1018.1 0.0
25/11:00pm 16.6 13.0 10.0 65 3.5 S 19 28 10 15 1018.4 1018.0 0.0
25/10:30pm 17.1 13.5 9.8 62 3.9 SSW 19 26 10 14 1018.2 1017.8 0.0
25/10:00pm 17.6 13.7 9.5 59 4.3 SSW 20 28 11 15 1018.2 1017.8 0.0
25/09:30pm 18.3 14.1 9.6 57 4.6 S 22 30 12 16 1018.2 1017.8 0.0
25/09:00pm 19.2 14.2 9.4 53 5.2 SSW 26 33 14 18 1018.0 1017.6 0.0
25/08:30pm 20.0 15.6 9.0 49 5.8 SSW 22 32 12 17 1017.8 1017.4 0.0
25/08:00pm 21.0 16.1 8.6 45 6.5 SSW 24 33 13 18 1017.5 1017.1 0.0
25/07:30pm 22.5 17.1 8.2 40 7.6 SW 26 35 14 19 1017.3 1016.8 0.0
25/07:00pm 24.1 18.2 7.7 35 8.7 SSW 28 35 15 19 1017.1 1016.6 0.0
25/06:30pm 25.7 20.3 7.8 32 9.6 SSW 26 39 14 21 1017.0 1016.5 0.0
25/06:00pm 26.1 20.8 8.6 33 9.5 SW 26 33 14 18 1017.0 1016.5 0.0
25/05:30pm 26.1 21.9 8.1 32 9.7 SSW 20 30 11 16 1016.9 1016.4 0.0
25/05:00pm 26.0 22.4 8.5 33 9.5 SSW 17 30 9 16 1017.0 1016.5 0.0
25/04:30pm 25.1 21.1 8.1 34 9.1 SSW 19 30 10 16 1017.2 1016.7 0.0
25/04:00pm 24.6 19.6 8.1 35 8.8 SSW 24 30 13 16 1017.5 1017.1 0.0
25/03:30pm 25.8 21.5 7.9 32 9.6 SW 20 30 11 16 1018.0 1017.6 0.0
25/03:00pm 25.2 20.1 7.8 33 9.3 SSW 24 33 13 18 1018.4 1018.0 0.0
25/02:30pm 25.7 21.4 7.8 32 9.6 SSW 20 33 11 18 1018.6 1018.2 0.0
25/02:00pm 25.3 21.7 8.3 34 9.1 SSW 17 33 9 18 1018.8 1018.4 0.0
25/01:30pm 23.7 19.4 6.9 34 8.7 S 19 28 10 15 1019.3 1018.8 0.0
25/01:00pm 24.0 20.1 7.2 34 8.8 SSE 17 24 9 13 1019.6 1019.1 0.0
25/12:30pm 23.4 19.5 7.1 35 8.5 SSE 17 26 9 14 1020.0 1019.5 0.0
25/12:00pm 22.8 18.5 7.0 36 8.2 SSE 19 28 10 15 1020.3 1019.8 0.0
25/11:30am 22.2 17.4 7.2 38 7.8 S 22 30 12 16 1020.7 1020.2 0.0
25/11:00am 20.8 15.3 7.4 42 6.9 S 26 33 14 18 1020.9 1020.4 0.0
25/10:30am 19.5 13.7 7.9 47 6.0 SSE 28 35 15 19 1021.2 1020.7 0.0
25/10:00am 18.8 13.1 8.2 50 5.5 S 28 37 15 20 1021.1 1020.6 0.0
25/09:30am 17.6 11.9 8.2 54 4.8 S 28 35 15 19 1021.1 1020.6 0.0
25/09:00am 16.4 10.0 8.4 59 4.1 SSE 32 43 17 23 1021.2 1020.7 0.0
25/08:30am 15.3 9.5 7.8 61 3.8 S 28 39 15 21 1020.9 1020.4 0.0
25/08:00am 14.4 8.5 7.7 64 3.3 S 28 41 15 22 1020.6 1020.1 0.0
25/07:30am 13.5 8.7 7.5 67 3.0 S 22 33 12 18 1020.5 1020.0 0.0
25/07:00am 13.4 8.2 7.4 67 2.9 SSE 24 35 13 19 1020.1 1019.6 0.0
25/06:30am 13.5 8.0 7.5 67 3.0 S 26 35 14 19 1020.0 1019.5 0.0
25/06:00am 13.5 8.4 7.7 68 2.9 S 24 33 13 18 1019.9 1019.4 0.0
25/05:30am 13.6 8.2 8.0 69 2.8 S 26 39 14 21 1019.8 1019.3 0.0
25/05:00am 13.5 9.0 8.4 71 2.6 S 22 30 12 16 1019.8 1019.3 0.0
25/04:30am 13.4 9.3 8.5 72 2.5 S 20 28 11 15 1019.8 1019.3 0.0
25/04:00am 13.7 9.6 8.5 71 2.6 S 20 30 11 16 1019.7 1019.2 0.0
25/03:30am 13.9 9.0 8.3 69 2.8 S 24 33 13 18 1019.8 1019.3 0.0
25/03:00am 14.0 9.0 8.2 68 2.9 S 24 32 13 17 1019.8 1019.3 0.0
25/02:30am 14.2 9.2 8.2 67 3.0 S 24 32 13 17 1019.9 1019.4 0.0
25/02:00am 14.3 9.6 7.8 65 3.2 S 22 30 12 16 1020.1 1019.6 0.0
25/01:30am 14.3 9.5 7.4 63 3.4 S 22 32 12 17 1020.4 1019.9 0.0
25/01:00am 14.6 8.7 7.4 62 3.6 S 28 37 15 20 1020.5 1020.0 0.0
25/12:30am 14.6 9.0 7.2 61 3.7 S 26 37 14 20 1020.7 1020.2 0.0
25/12:00am 14.9 8.9 7.2 60 3.8 S 28 41 15 22 1021.0 1020.5 0.0
 
Date/Time
EDT
Temp
°C
App
Temp
°C
Dew
Point
°C
Rel
Hum
%
Delta-T
°C
Wind Press
QNH
hPa
Press
MSL
hPa
Rain since
9am
mm
Dir  Spd
km/h
Gust
km/h
Spd
kts
Gust
kts
24/11:30pm 15.2 8.5 7.5 60 3.8 S 32 41 17 22 1021.2 1020.7 0.0
24/11:00pm 15.4 9.2 7.9 61 3.8 S 30 44 16 24 1021.5 1021.0 0.0
24/10:30pm 15.6 9.0 7.9 60 3.9 S 32 44 17 24 1021.6 1021.1 0.0
24/10:00pm 15.9 9.7 7.7 58 4.1 SSW 30 39 16 21 1021.8 1021.3 0.0
24/09:30pm 16.4 9.6 7.6 56 4.4 S 33 54 18 29 1021.5 1021.0 0.0
24/09:28pm 16.4 9.8 7.9 57 4.3 S 32 54 17 29 1021.5 1021.0 0.0
24/09:00pm 16.9 11.3 8.6 58 4.3 S 28 41 15 22 1021.2 1020.7 0.0
24/08:30pm 17.6 11.5 8.2 54 4.8 SSW 30 46 16 25 1021.0 1020.5 0.0
24/08:00pm 18.9 12.4 8.0 49 5.6 SSW 32 46 17 25 1020.5 1020.0 0.0
24/07:30pm 20.6 14.3 7.2 42 6.9 SSW 30 44 16 24 1020.3 1019.8 0.0
24/07:00pm 21.6 14.2 6.7 38 7.6 SSW 35 46 19 25 1020.1 1019.6 0.0
24/06:30pm 23.1 16.7 6.8 35 8.4 SSW 30 41 16 22 1020.0 1019.5 0.0
24/06:00pm 24.1 17.1 6.8 33 9.0 S 33 48 18 26 1019.8 1019.3 0.0
24/05:30pm 24.8 17.3 6.5 31 9.5 SSW 35 54 19 29 1019.6 1019.1 0.0
24/05:28pm 24.3 16.9 6.6 32 9.2 SSW 35 54 19 29 1019.6 1019.1 0.0
24/05:00pm 25.0 17.5 6.2 30 9.7 S 35 48 19 26 1019.5 1019.0 0.0
24/04:30pm 25.1 18.0 6.3 30 9.8 SSW 33 44 18 24 1019.7 1019.2 0.0
24/04:00pm 26.0 19.1 7.1 30 10.0 SSW 33 44 18 24 1019.8 1019.3 0.0
24/03:30pm 25.5 18.4 6.2 29 10.0 SSW 33 48 18 26 1020.0 1019.5 0.0
24/03:00pm 27.4 20.7 7.3 28 10.7 SSW 32 43 17 23 1020.2 1019.7 0.0
24/02:30pm 25.9 19.2 8.0 32 9.6 SSW 33 43 18 23 1020.5 1020.0 0.0
24/02:08pm 26.3 20.7 8.8 33 9.6 S 28 46 15 25 1020.6 1020.1 0.0
24/02:00pm 24.8 18.1 7.4 33 9.2 S 32 43 17 23 1020.7 1020.2 0.0
24/01:30pm 24.3 18.7 8.7 37 8.4 S 28 41 15 22 1020.8 1020.3 0.0
24/01:00pm 24.4 18.0 8.4 36 8.6 SSW 32 41 17 22 1021.1 1020.6 0.0
24/12:30pm 23.9 18.4 9.1 39 8.0 SSW 28 35 15 19 1021.3 1020.8 0.0
24/12:00pm 23.6 19.1 9.9 42 7.5 SSW 24 35 13 19 1021.6 1021.1 0.0
24/11:30am 22.5 17.1 9.6 44 7.0 S 28 35 15 19 1021.7 1021.2 0.0
24/11:00am 22.2 18.6 10.4 47 6.5 S 20 28 11 15 1021.7 1021.2 0.0

Other Formats:

Comma delimited format used in spreadsheet applications
http://www.bom.gov.au/fwo/IDV60801/IDV60801.94875.axf

JavaScript Object Notation format (JSON) in row-major order
http://www.bom.gov.au/fwo/IDV60801/IDV60801.94875.json